createdAt,value
2022-11-20T12:52:18.905Z,76.94
2022-11-20T12:55:11.065Z,75.59
2022-11-20T12:57:58.488Z,74.73
2022-11-20T13:00:26.069Z,74.51
2022-11-20T13:03:14.934Z,74.73
2022-11-20T13:05:59.399Z,74.74
2022-11-20T13:08:29.551Z,74.97
2022-11-20T13:10:58.237Z,75.66
2022-11-20T13:13:30.708Z,75.91
2022-11-20T13:16:03.824Z,75.46
2022-11-20T13:18:32.141Z,75.65
2022-11-20T13:20:59.081Z,76.64
2022-11-20T13:23:29.481Z,77.79
2022-11-20T13:26:23.476Z,78.58
2022-11-20T13:29:18.220Z,79.75
2022-11-20T13:31:46.498Z,79.57
2022-11-20T13:34:15.644Z,79.36
2022-11-20T13:36:54.100Z,78.60
2022-11-20T13:39:37.329Z,79.54
2022-11-20T13:42:22.818Z,80.07
2022-11-20T13:44:54.428Z,80.55
2022-11-20T13:47:26.569Z,81.03
2022-11-20T13:49:55.424Z,81.31
2022-11-20T13:52:40.057Z,82.00
2022-11-20T13:55:20.426Z,81.53
2022-11-20T13:57:56.179Z,81.87
2022-11-20T14:00:25.001Z,81.41
2022-11-20T14:03:02.364Z,81.02
2022-11-20T14:05:29.427Z,81.46
2022-11-20T14:07:56.079Z,81.55
2022-11-20T14:10:32.132Z,81.72
2022-11-20T14:12:59.639Z,81.54
2022-11-20T14:15:31.942Z,82.09
2022-11-20T14:17:58.995Z,82.83
2022-11-20T14:20:27.939Z,82.97
2022-11-20T14:22:55.239Z,83.54
2022-11-20T14:25:24.368Z,83.51
2022-11-20T14:27:59.234Z,84.06
2022-11-20T14:30:28.296Z,83.98
2022-11-20T14:32:57.372Z,84.65
2022-11-20T14:35:30.037Z,84.66
2022-11-20T14:37:57.385Z,85.21
2022-11-20T14:40:31.768Z,85.77
2022-11-20T14:42:59.328Z,85.60
2022-11-20T14:45:26.886Z,86.22
2022-11-20T14:47:54.951Z,86.90
2022-11-20T14:50:27.676Z,86.69
2022-11-20T14:52:59.546Z,86.94
2022-11-20T14:55:31.428Z,87.56
2022-11-20T14:58:06.405Z,87.84
2022-11-20T15:00:34.408Z,88.07
2022-11-20T15:03:00.973Z,88.13
2022-11-20T15:05:48.976Z,88.47
2022-11-20T15:08:16.235Z,88.96
2022-11-20T15:10:53.120Z,89.29
2022-11-20T15:13:27.456Z,89.53
2022-11-20T15:15:56.145Z,89.86
2022-11-20T15:18:25.527Z,90.05
2022-11-20T15:20:52.863Z,89.71
2022-11-20T15:23:20.344Z,89.66
2022-11-20T15:25:47.980Z,89.66
2022-11-20T15:28:30.522Z,90.21
2022-11-20T15:30:57.441Z,90.35
2022-11-20T15:33:24.259Z,90.00
2022-11-20T15:35:50.804Z,90.38
2022-11-20T15:38:17.360Z,90.89
2022-11-20T15:40:44.067Z,90.81
2022-11-20T15:43:13.631Z,90.87
2022-11-20T15:45:48.880Z,91.20
2022-11-20T15:48:17.676Z,91.48
2022-11-20T15:50:51.773Z,91.21
2022-11-20T15:53:18.696Z,91.51
2022-11-20T15:55:45.311Z,91.55
2022-11-20T15:58:11.832Z,91.86
2022-11-20T16:00:38.507Z,91.64
2022-11-20T16:03:05.012Z,91.78
2022-11-20T16:05:31.981Z,92.28
2022-11-20T16:07:58.695Z,92.19
2022-11-20T16:10:25.696Z,92.25
2022-11-20T16:13:10.742Z,91.97
2022-11-20T16:15:45.856Z,92.14
2022-11-20T16:18:17.719Z,92.50
2022-11-20T16:20:44.606Z,92.32
2022-11-20T16:23:11.436Z,92.04
2022-11-20T16:25:38.239Z,92.35
2022-11-20T16:28:05.095Z,92.36
2022-11-20T16:30:33.862Z,92.55
2022-11-20T16:33:01.335Z,92.57
2022-11-20T16:35:28.977Z,92.36
2022-11-20T16:37:56.221Z,92.56
2022-11-20T16:40:26.287Z,92.80
2022-11-20T16:42:53.119Z,93.17
2022-11-20T16:45:25.343Z,92.61
2022-11-20T16:47:53.579Z,92.77
2022-11-20T16:50:20.178Z,92.56
2022-11-20T16:52:46.747Z,92.97
2022-11-20T16:55:13.675Z,93.43
2022-11-20T16:57:42.651Z,93.23
2022-11-20T17:00:09.795Z,92.75
2022-11-20T17:02:37.884Z,92.79
2022-11-20T17:05:04.726Z,93.34
2022-11-20T17:07:31.282Z,93.34
2022-11-20T17:09:58.127Z,93.22
2022-11-20T17:12:24.673Z,92.94
2022-11-20T17:14:51.171Z,93.40
2022-11-20T17:17:17.703Z,93.35
2022-11-20T17:19:46.798Z,93.36
2022-11-20T17:22:13.300Z,93.68
2022-11-20T17:24:39.824Z,94.15
2022-11-20T17:27:06.436Z,94.09
2022-11-20T17:29:33.905Z,94.09
2022-11-20T17:32:03.203Z,94.11
2022-11-20T17:34:29.828Z,94.23
2022-11-20T17:36:56.343Z,93.98
2022-11-20T17:39:22.887Z,94.27
2022-11-20T17:42:09.320Z,93.99
2022-11-20T17:44:35.896Z,94.46
2022-11-20T17:47:02.570Z,94.44
2022-11-20T17:49:29.194Z,94.11
2022-11-20T17:51:55.801Z,93.93
2022-11-20T17:54:22.691Z,94.07
2022-11-20T17:57:08.286Z,94.13
2022-11-20T17:59:34.847Z,93.95
2022-11-20T18:02:03.850Z,93.78
2022-11-20T18:04:30.732Z,93.38
2022-11-20T18:06:57.320Z,93.69
2022-11-20T18:09:23.967Z,93.59
2022-11-20T18:11:50.547Z,93.26
2022-11-20T18:14:28.929Z,93.24
2022-11-20T18:16:57.473Z,93.48
2022-11-20T18:19:32.450Z,93.26
2022-11-20T18:22:01.494Z,93.02
2022-11-20T18:24:28.313Z,93.74
2022-11-20T18:26:54.863Z,92.76
2022-11-20T18:29:21.941Z,93.58
2022-11-20T18:31:48.959Z,93.86
2022-11-20T18:34:16.406Z,93.20
2022-11-20T18:36:43.470Z,94.15
2022-11-20T18:39:11.915Z,93.67
2022-11-20T18:41:57.466Z,93.63
2022-11-20T18:44:45.450Z,93.53
2022-11-20T18:47:15.108Z,93.63
2022-11-20T18:49:42.826Z,94.59
2022-11-20T18:52:09.774Z,94.15
2022-11-20T18:54:36.907Z,93.36
2022-11-20T18:57:04.809Z,93.85
2022-11-20T18:59:31.907Z,93.83
2022-11-20T19:01:58.754Z,94.21
2022-11-20T19:04:25.632Z,93.78
2022-11-20T19:06:56.104Z,93.76
2022-11-20T19:09:24.064Z,94.08
2022-11-20T19:11:51.203Z,94.59
2022-11-20T19:14:17.983Z,94.48
2022-11-20T19:16:44.747Z,94.82
2022-11-20T19:19:11.255Z,94.24
2022-11-20T19:21:38.071Z,94.69
2022-11-20T19:24:05.608Z,94.69
2022-11-20T19:26:35.439Z,95.20
2022-11-20T19:29:02.139Z,94.95
2022-11-20T19:31:28.970Z,95.18
2022-11-20T19:34:00.924Z,94.85
2022-11-20T19:36:43.223Z,95.04
2022-11-20T19:39:11.757Z,94.99
2022-11-20T19:41:40.287Z,95.44
2022-11-20T19:44:09.575Z,95.18
2022-11-20T19:46:37.096Z,95.56
2022-11-20T19:49:04.848Z,95.76
2022-11-20T19:51:33.918Z,95.36
2022-11-20T19:54:01.012Z,94.60
2022-11-20T19:56:29.281Z,94.96
2022-11-20T19:58:56.364Z,94.89
2022-11-20T20:01:25.414Z,95.03
2022-11-20T20:03:52.953Z,94.89
2022-11-20T20:06:24.896Z,94.42
2022-11-20T20:08:56.066Z,95.40
2022-11-20T20:11:24.376Z,95.29
2022-11-20T20:13:51.064Z,94.86
2022-11-20T20:16:20.562Z,95.76
2022-11-20T20:18:49.223Z,95.76
2022-11-20T20:21:18.501Z,95.68
2022-11-20T20:23:45.559Z,95.50
2022-11-20T20:26:12.592Z,95.39
2022-11-20T20:28:39.441Z,95.56
2022-11-20T20:31:13.088Z,96.15
2022-11-20T20:33:40.932Z,96.30
2022-11-20T20:36:09.335Z,96.18
2022-11-20T20:38:36.025Z,96.41
2022-11-20T20:41:02.537Z,96.53
2022-11-20T20:43:29.308Z,96.26
2022-11-20T20:45:55.874Z,96.16
2022-11-20T20:48:24.205Z,96.47
2022-11-20T20:51:01.051Z,97.32
2022-11-20T20:53:27.795Z,97.38
2022-11-20T20:55:58.558Z,97.44
2022-11-20T20:58:26.925Z,97.34
2022-11-20T21:00:55.721Z,98.18
2022-11-20T21:03:22.225Z,97.75
2022-11-20T21:05:56.064Z,97.60
2022-11-20T21:08:22.750Z,98.43
2022-11-20T21:10:49.565Z,98.11
2022-11-20T21:13:16.694Z,98.78
2022-11-20T21:15:46.556Z,98.45
2022-11-20T21:18:13.307Z,98.43
2022-11-20T21:21:02.372Z,98.98
2022-11-20T21:23:28.959Z,100.00
2022-11-20T21:25:55.553Z,100.00
2022-11-20T21:28:22.252Z,100.00
2022-11-20T21:30:49.437Z,100.00
2022-11-20T21:33:16.081Z,100.00
2022-11-20T21:35:42.605Z,100.00
2022-11-20T21:38:09.118Z,100.00
2022-11-20T21:40:35.796Z,100.00
2022-11-20T21:43:02.292Z,100.00
2022-11-20T21:45:28.904Z,100.00
2022-11-20T21:47:55.462Z,100.00
2022-11-20T21:50:22.397Z,100.00
2022-11-20T21:52:48.939Z,100.00
2022-11-20T21:55:15.767Z,100.00
2022-11-20T21:57:42.515Z,100.00
2022-11-20T22:00:10.640Z,100.00
2022-11-20T22:02:40.260Z,100.00
2022-11-20T22:05:08.111Z,100.00
2022-11-20T22:07:35.372Z,100.00
2022-11-20T22:10:02.111Z,100.00
2022-11-20T22:12:28.787Z,100.00
2022-11-20T22:14:55.322Z,100.00
2022-11-20T22:17:41.846Z,100.00
2022-11-20T22:20:09.369Z,100.00
2022-11-20T22:22:36.144Z,100.00
2022-11-20T22:25:03.307Z,100.00
2022-11-20T22:27:30.081Z,100.00
2022-11-20T22:29:56.579Z,100.00
2022-11-20T22:32:23.089Z,100.00
2022-11-20T22:34:49.549Z,100.00
2022-11-20T22:37:16.212Z,100.00
2022-11-20T22:39:42.708Z,100.00
2022-11-20T22:42:09.198Z,100.00
2022-11-20T22:44:35.715Z,100.00
2022-11-20T22:47:02.661Z,100.00
2022-11-20T22:49:31.108Z,100.00
2022-11-20T22:51:57.709Z,100.00
2022-11-20T22:54:25.048Z,100.00
2022-11-20T22:56:51.771Z,100.00
2022-11-20T22:59:18.565Z,100.00
2022-11-20T23:01:45.104Z,100.00
2022-11-20T23:04:14.794Z,100.00
2022-11-20T23:06:41.385Z,100.00
2022-11-20T23:09:08.746Z,100.00
2022-11-20T23:11:35.788Z,100.00
2022-11-20T23:14:05.137Z,100.00
2022-11-20T23:16:32.748Z,100.00
2022-11-20T23:19:01.833Z,98.65
2022-11-20T23:21:28.513Z,100.00
2022-11-20T23:23:56.841Z,100.00
2022-11-20T23:26:25.357Z,100.00
2022-11-20T23:28:53.806Z,100.00
2022-11-20T23:31:20.488Z,100.00
2022-11-20T23:33:47.022Z,100.00
2022-11-20T23:36:13.874Z,100.00
2022-11-20T23:38:40.831Z,100.00
2022-11-20T23:41:07.675Z,100.00
2022-11-20T23:43:34.533Z,100.00
2022-11-20T23:46:02.144Z,100.00
2022-11-20T23:48:33.763Z,100.00
2022-11-20T23:51:00.643Z,100.00
2022-11-20T23:53:27.649Z,100.00
2022-11-20T23:55:57.457Z,100.00
2022-11-20T23:58:25.376Z,100.00
